createdAt,value
2023-02-26T00:00:14.957Z,3.33
2023-02-26T00:02:44.773Z,3.33
2023-02-26T00:05:12.368Z,2.90
2023-02-26T00:07:39.310Z,2.80
2023-02-26T00:10:07.571Z,3.03
2023-02-26T00:12:34.348Z,2.28
2023-02-26T00:15:01.186Z,3.63
2023-02-26T00:17:50.639Z,2.80
2023-02-26T00:20:17.608Z,2.80
2023-02-26T00:22:44.719Z,2.70
2023-02-26T00:25:13.763Z,2.63
2023-02-26T00:27:40.652Z,3.08
2023-02-26T00:30:09.331Z,2.40
2023-02-26T00:32:36.518Z,2.58
2023-02-26T00:35:04.158Z,2.50
2023-02-26T00:37:51.415Z,2.40
2023-02-26T00:40:30.415Z,2.60
2023-02-26T00:42:57.294Z,2.60
2023-02-26T00:45:23.916Z,2.72
2023-02-26T00:48:12.074Z,2.22
2023-02-26T00:53:36.058Z,1.70
2023-02-26T00:56:02.399Z,1.80
2023-02-26T00:58:28.994Z,2.55
2023-02-26T01:00:55.627Z,1.90
2023-02-26T01:03:22.518Z,2.20
2023-02-26T01:05:49.079Z,2.05
2023-02-26T01:08:24.630Z,2.45
2023-02-26T01:10:51.548Z,2.42
2023-02-26T01:13:18.475Z,1.95
2023-02-26T01:15:50.175Z,2.25
2023-02-26T01:18:26.793Z,1.77
2023-02-26T01:21:04.834Z,1.67
2023-02-26T01:23:41.717Z,2.13
2023-02-26T01:26:17.847Z,2.10
2023-02-26T01:28:44.809Z,1.60
2023-02-26T01:31:25.494Z,1.85
2023-02-26T01:34:00.166Z,1.52
2023-02-26T01:36:33.807Z,3.08
2023-02-26T01:39:11.427Z,2.08
2023-02-26T01:41:50.724Z,1.90
2023-02-26T01:44:36.415Z,2.53
2023-02-26T01:47:23.604Z,2.50
2023-02-26T01:49:50.529Z,2.77
2023-02-26T01:52:31.891Z,2.17
2023-02-26T01:54:58.259Z,1.80
2023-02-26T01:57:25.357Z,1.95
2023-02-26T01:59:53.584Z,2.28
2023-02-26T02:02:23.198Z,2.10
2023-02-26T02:04:50.489Z,1.90
2023-02-26T02:07:18.251Z,1.50
2023-02-26T02:09:44.944Z,2.03
2023-02-26T02:12:39.968Z,1.88
2023-02-26T02:15:20.281Z,1.80
2023-02-26T02:18:00.373Z,1.77
2023-02-26T02:20:45.077Z,1.60
2023-02-26T02:23:25.870Z,1.95
2023-02-26T02:26:10.567Z,1.50
2023-02-26T02:29:06.890Z,2.00
2023-02-26T02:31:39.044Z,1.75
2023-02-26T02:34:17.731Z,1.83
2023-02-26T02:37:14.400Z,1.80
2023-02-26T02:39:50.762Z,1.50
2023-02-26T02:42:26.759Z,1.58
2023-02-26T02:45:01.016Z,1.90
2023-02-26T02:47:31.186Z,1.75
2023-02-26T02:50:12.927Z,2.50
2023-02-26T02:52:50.396Z,2.22
2023-02-26T02:55:28.802Z,1.60
2023-02-26T03:00:35.398Z,1.95
2023-02-26T03:03:27.881Z,1.55
2023-02-26T03:05:54.434Z,1.58
2023-02-26T03:08:23.996Z,1.70
2023-02-26T03:10:50.778Z,2.17
2023-02-26T03:13:19.409Z,1.92
2023-02-26T03:16:24.194Z,1.60
2023-02-26T03:19:02.577Z,1.80
2023-02-26T03:24:09.945Z,1.90
2023-02-26T03:26:58.538Z,1.92
2023-02-26T03:29:45.476Z,1.85
2023-02-26T03:32:18.220Z,2.13
2023-02-26T03:34:54.896Z,1.63
2023-02-26T03:37:37.910Z,1.67
2023-02-26T03:40:11.443Z,2.00
2023-02-26T03:42:45.270Z,2.15
2023-02-26T03:45:16.458Z,2.20
2023-02-26T03:47:46.910Z,1.90
2023-02-26T03:50:20.160Z,1.65
2023-02-26T03:52:50.693Z,1.88
2023-02-26T03:55:26.640Z,1.73
2023-02-26T03:57:53.520Z,2.17
2023-02-26T04:00:22.307Z,1.60
2023-02-26T04:03:01.264Z,2.00
2023-02-26T04:05:32.356Z,1.77
2023-02-26T04:07:59.250Z,1.58
2023-02-26T04:10:34.342Z,2.30
2023-02-26T04:13:02.156Z,1.75
2023-02-26T04:15:28.960Z,1.75
2023-02-26T04:17:55.326Z,1.92
2023-02-26T04:20:21.709Z,1.85
2023-02-26T04:22:48.332Z,2.13
2023-02-26T04:25:14.856Z,1.90
2023-02-26T04:27:41.432Z,1.65
2023-02-26T04:30:08.639Z,2.47
2023-02-26T04:32:35.270Z,2.60
2023-02-26T04:35:01.969Z,1.95
2023-02-26T04:37:28.490Z,2.08
2023-02-26T04:39:54.852Z,1.73
2023-02-26T04:42:21.278Z,1.92
2023-02-26T04:44:47.712Z,1.77
2023-02-26T04:47:14.463Z,1.85
2023-02-26T04:49:40.867Z,1.75
2023-02-26T04:52:07.369Z,1.83
2023-02-26T04:54:34.050Z,1.55
2023-02-26T04:57:00.674Z,1.77
2023-02-26T05:01:52.266Z,1.67
2023-02-26T05:04:18.905Z,1.70
2023-02-26T05:06:45.311Z,2.13
2023-02-26T05:09:11.715Z,2.10
2023-02-26T05:11:38.097Z,1.98
2023-02-26T05:14:04.395Z,1.55
2023-02-26T05:16:30.849Z,1.95
2023-02-26T05:18:57.532Z,2.00
2023-02-26T05:21:26.129Z,1.58
2023-02-26T05:23:52.770Z,2.00
2023-02-26T05:26:19.177Z,1.90
2023-02-26T05:28:45.676Z,2.00
2023-02-26T05:31:13.412Z,2.38
2023-02-26T05:33:39.849Z,1.75
2023-02-26T05:36:07.115Z,1.63
2023-02-26T05:38:34.210Z,1.95
2023-02-26T05:41:01.075Z,1.48
2023-02-26T05:43:28.275Z,2.15
2023-02-26T05:45:55.425Z,1.50
2023-02-26T05:48:22.903Z,1.58
2023-02-26T05:50:50.169Z,1.33
2023-02-26T05:53:17.239Z,1.95
2023-02-26T05:55:43.571Z,1.70
2023-02-26T05:58:10.309Z,2.10
2023-02-26T06:00:37.047Z,1.90
2023-02-26T06:03:03.789Z,2.00
2023-02-26T06:05:30.157Z,2.00
2023-02-26T06:07:56.656Z,1.75
2023-02-26T06:10:23.205Z,1.83
2023-02-26T06:12:49.583Z,1.88
2023-02-26T06:15:16.528Z,1.67
2023-02-26T06:17:43.255Z,1.70
2023-02-26T06:20:10.597Z,1.98
2023-02-26T06:22:37.244Z,1.67
2023-02-26T06:25:04.069Z,1.90
2023-02-26T06:27:30.444Z,1.40
2023-02-26T06:29:56.774Z,1.73
2023-02-26T06:32:23.259Z,1.73
2023-02-26T06:34:49.572Z,1.67
2023-02-26T06:37:16.376Z,1.98
2023-02-26T06:39:43.214Z,2.17
2023-02-26T06:42:09.685Z,1.73
2023-02-26T06:44:36.076Z,1.50
2023-02-26T06:47:02.718Z,1.48
2023-02-26T06:49:29.164Z,1.60
2023-02-26T06:51:55.787Z,1.85
2023-02-26T06:54:22.652Z,2.00
2023-02-26T06:56:49.018Z,1.88
2023-02-26T06:59:15.644Z,2.00
2023-02-26T07:01:42.313Z,1.92
2023-02-26T07:04:09.036Z,1.88
2023-02-26T07:06:35.490Z,1.77
2023-02-26T07:09:01.817Z,1.98
2023-02-26T07:11:28.199Z,1.63
2023-02-26T07:13:55.147Z,1.88
2023-02-26T07:16:21.806Z,1.70
2023-02-26T07:18:48.228Z,1.92
2023-02-26T07:21:14.628Z,1.70
2023-02-26T07:23:44.342Z,1.55
2023-02-26T07:26:10.784Z,1.80
2023-02-26T07:28:37.369Z,1.67
2023-02-26T07:31:05.526Z,1.67
2023-02-26T07:33:32.000Z,2.00
2023-02-26T07:35:58.313Z,2.10
2023-02-26T07:38:24.695Z,1.83
2023-02-26T07:40:51.229Z,3.17
2023-02-26T07:43:17.586Z,2.10
2023-02-26T07:45:43.982Z,1.60
2023-02-26T07:48:10.332Z,2.40
2023-02-26T07:50:36.724Z,2.75
2023-02-26T07:53:03.101Z,2.42
2023-02-26T07:55:29.844Z,1.85
2023-02-26T07:57:56.178Z,1.83
2023-02-26T08:00:22.751Z,1.63
2023-02-26T08:02:49.347Z,2.15
2023-02-26T08:05:16.089Z,2.03
2023-02-26T08:07:42.515Z,2.28
2023-02-26T08:10:10.374Z,1.92
2023-02-26T08:12:37.003Z,2.35
2023-02-26T08:15:05.266Z,1.88
2023-02-26T08:17:31.800Z,2.13
2023-02-26T08:19:58.137Z,1.85
2023-02-26T08:22:24.517Z,2.00
2023-02-26T08:24:51.108Z,1.88
2023-02-26T08:27:20.427Z,2.03
2023-02-26T08:29:46.829Z,1.90
2023-02-26T08:32:15.808Z,2.03
2023-02-26T08:34:42.293Z,2.05
2023-02-26T08:37:11.533Z,1.88
2023-02-26T08:39:39.168Z,1.75
2023-02-26T08:42:07.499Z,1.70
2023-02-26T08:44:34.013Z,2.55
2023-02-26T08:47:01.325Z,1.95
2023-02-26T08:49:27.667Z,2.47
2023-02-26T08:51:54.497Z,1.73
2023-02-26T08:54:21.172Z,2.80
2023-02-26T08:56:47.728Z,1.98
2023-02-26T08:59:14.435Z,2.20
2023-02-26T09:01:42.115Z,2.20
2023-02-26T09:04:08.507Z,1.98
2023-02-26T09:06:34.847Z,1.83
2023-02-26T09:09:01.211Z,2.15
2023-02-26T09:11:30.466Z,1.90
2023-02-26T09:13:58.921Z,2.42
2023-02-26T09:18:52.806Z,1.95
2023-02-26T09:21:19.219Z,3.08
2023-02-26T09:23:45.609Z,1.35
2023-02-26T09:26:12.050Z,1.80
2023-02-26T09:28:38.560Z,1.45
2023-02-26T09:31:07.193Z,1.88
2023-02-26T09:33:34.126Z,1.45
2023-02-26T09:36:00.526Z,1.70
2023-02-26T09:38:27.048Z,1.73
2023-02-26T09:41:03.984Z,1.70
2023-02-26T09:43:42.595Z,1.45
2023-02-26T09:46:31.862Z,1.55
2023-02-26T09:49:34.185Z,1.70
2023-02-26T09:52:30.426Z,1.50
2023-02-26T09:55:01.324Z,1.45
2023-02-26T09:57:34.826Z,1.90
2023-02-26T10:00:03.201Z,2.20
2023-02-26T10:05:40.957Z,1.35
2023-02-26T10:08:50.034Z,1.45
2023-02-26T10:11:26.070Z,1.38
2023-02-26T10:13:59.785Z,1.58
2023-02-26T10:16:33.559Z,1.73
2023-02-26T10:19:11.059Z,1.63
2023-02-26T10:21:47.792Z,1.15
2023-02-26T10:24:20.947Z,1.70
2023-02-26T10:26:59.762Z,1.90
2023-02-26T10:29:37.784Z,1.25
2023-02-26T10:32:24.828Z,1.70
2023-02-26T10:35:02.904Z,1.50
2023-02-26T10:37:53.946Z,1.50
2023-02-26T10:40:26.609Z,1.50
2023-02-26T10:43:13.035Z,1.63
2023-02-26T10:46:00.797Z,2.20
2023-02-26T10:49:21.719Z,2.00
2023-02-26T10:51:48.137Z,2.47
2023-02-26T10:54:27.451Z,1.80
2023-02-26T10:56:56.217Z,2.00
2023-02-26T10:59:23.475Z,1.90
2023-02-26T11:01:51.780Z,1.23
2023-02-26T11:06:55.016Z,2.15
2023-02-26T11:09:37.767Z,3.33
2023-02-26T11:12:18.016Z,2.80
2023-02-26T11:14:46.855Z,2.10
2023-02-26T11:17:33.398Z,1.40
2023-02-26T11:20:05.808Z,1.40
2023-02-26T11:22:39.246Z,1.30
2023-02-26T11:25:06.476Z,1.40
2023-02-26T11:27:37.453Z,1.05
2023-02-26T11:30:18.389Z,1.50
2023-02-26T11:32:46.432Z,1.30
2023-02-26T11:35:14.867Z,1.50
2023-02-26T11:37:46.311Z,1.20
2023-02-26T11:40:24.689Z,1.30
2023-02-26T11:45:22.048Z,1.20
2023-02-26T11:50:22.871Z,1.00
2023-02-26T11:52:57.600Z,1.00
2023-02-26T11:55:31.749Z,1.08
2023-02-26T11:57:58.402Z,1.10
2023-02-26T12:00:31.195Z,0.98
2023-02-26T12:03:08.053Z,0.90
2023-02-26T12:05:36.460Z,1.00
2023-02-26T12:08:13.138Z,1.20
2023-02-26T12:11:00.876Z,1.23
2023-02-26T12:14:24.261Z,1.20
2023-02-26T12:17:11.573Z,1.00
2023-02-26T12:20:20.051Z,1.30
2023-02-26T12:23:11.312Z,2.00
2023-02-26T12:25:42.014Z,1.30
2023-02-26T12:28:33.380Z,0.80
2023-02-26T12:31:30.367Z,0.90
2023-02-26T12:34:17.646Z,0.90
2023-02-26T12:36:55.053Z,1.23
2023-02-26T12:39:50.579Z,0.90
2023-02-26T12:42:26.452Z,0.95
2023-02-26T12:45:14.436Z,1.20
2023-02-26T12:47:52.840Z,1.13
2023-02-26T12:53:35.823Z,0.90
2023-02-26T12:56:23.995Z,0.80
2023-02-26T12:59:04.056Z,2.20
2023-02-26T13:02:00.832Z,1.73
2023-02-26T13:04:35.226Z,1.55
2023-02-26T13:07:13.642Z,1.00
2023-02-26T13:12:37.922Z,1.13
2023-02-26T13:15:34.197Z,1.08
2023-02-26T13:18:37.958Z,1.25
2023-02-26T13:21:14.110Z,0.95
2023-02-26T13:23:51.486Z,1.10
2023-02-26T13:26:19.141Z,0.88
2023-02-26T13:29:11.955Z,0.82
2023-02-26T13:31:50.608Z,1.10
2023-02-26T13:34:23.378Z,0.90
2023-02-26T13:36:50.994Z,0.90
2023-02-26T13:39:53.722Z,1.23
2023-02-26T13:42:42.930Z,0.95
2023-02-26T13:45:35.962Z,1.55
2023-02-26T13:48:28.742Z,0.90
2023-02-26T13:51:17.247Z,0.90
2023-02-26T13:53:52.348Z,1.10
2023-02-26T13:56:33.663Z,1.05
2023-02-26T13:59:05.174Z,0.95
2023-02-26T14:01:35.522Z,0.90
2023-02-26T14:04:23.058Z,1.27
2023-02-26T14:06:53.692Z,0.85
2023-02-26T14:09:22.998Z,1.17
2023-02-26T14:11:55.504Z,1.05
2023-02-26T14:14:21.970Z,1.20
2023-02-26T14:17:21.206Z,1.00
2023-02-26T14:19:54.830Z,1.20
2023-02-26T14:22:30.866Z,1.20
2023-02-26T14:24:58.604Z,1.25
2023-02-26T14:27:47.177Z,1.23
2023-02-26T14:30:18.513Z,1.35
2023-02-26T14:32:46.927Z,1.75
2023-02-26T14:37:46.538Z,1.50
2023-02-26T14:40:25.496Z,1.13
2023-02-26T14:43:01.228Z,1.25
2023-02-26T14:45:39.584Z,1.20
2023-02-26T14:50:52.009Z,1.35
2023-02-26T14:53:33.508Z,2.35
2023-02-26T14:56:16.466Z,2.22
2023-02-26T14:58:54.809Z,1.40
2023-02-26T15:04:40.342Z,1.45
2023-02-26T15:07:41.127Z,1.02
2023-02-26T15:10:37.654Z,1.40
2023-02-26T15:13:23.724Z,1.42
2023-02-26T15:15:55.663Z,1.23
2023-02-26T15:19:08.754Z,1.45
2023-02-26T15:22:02.883Z,1.30
2023-02-26T15:24:31.178Z,1.30
2023-02-26T15:27:02.095Z,1.90
2023-02-26T15:29:36.534Z,1.15
2023-02-26T15:32:28.281Z,1.30
2023-02-26T15:34:58.978Z,1.25
2023-02-26T15:37:28.310Z,1.08
2023-02-26T15:39:54.751Z,1.52
2023-02-26T15:42:24.617Z,1.42
2023-02-26T15:44:57.069Z,1.50
2023-02-26T15:47:24.128Z,1.60
2023-02-26T15:49:50.658Z,2.25
2023-02-26T15:52:23.003Z,1.58
2023-02-26T15:55:02.794Z,1.40
2023-02-26T15:57:30.282Z,1.60
2023-02-26T16:00:14.109Z,1.38
2023-02-26T16:02:41.118Z,1.35
2023-02-26T16:05:09.055Z,1.17
2023-02-26T16:07:35.456Z,0.95
2023-02-26T16:10:15.367Z,1.10
2023-02-26T16:12:44.504Z,1.02
2023-02-26T16:15:19.421Z,1.15
2023-02-26T16:17:49.579Z,1.20
2023-02-26T16:20:20.313Z,1.20
2023-02-26T16:22:55.391Z,1.50
2023-02-26T16:25:35.070Z,1.50
2023-02-26T16:28:17.044Z,1.40
2023-02-26T16:30:47.575Z,1.38
2023-02-26T16:33:16.799Z,1.38
2023-02-26T16:35:47.066Z,1.40
2023-02-26T16:38:22.228Z,1.92
2023-02-26T16:40:57.743Z,1.58
2023-02-26T16:43:25.159Z,1.90
2023-02-26T16:45:55.819Z,1.60
2023-02-26T16:48:30.849Z,1.40
2023-02-26T16:51:00.858Z,1.40
2023-02-26T16:53:45.105Z,1.30
2023-02-26T16:56:18.127Z,1.20
2023-02-26T16:58:47.539Z,1.13
2023-02-26T17:01:18.497Z,1.30
2023-02-26T17:03:55.777Z,1.05
2023-02-26T17:06:34.072Z,1.30
2023-02-26T17:11:36.732Z,1.23
2023-02-26T17:14:10.135Z,1.30
2023-02-26T17:16:36.669Z,1.25
2023-02-26T17:19:03.810Z,1.63
2023-02-26T17:21:31.861Z,1.23
2023-02-26T17:23:59.134Z,1.00
2023-02-26T17:26:26.916Z,1.13
2023-02-26T17:28:53.465Z,1.17
2023-02-26T17:31:20.442Z,1.42
2023-02-26T17:33:46.896Z,1.50
2023-02-26T17:36:16.399Z,1.10
2023-02-26T17:38:47.302Z,1.20
2023-02-26T17:41:18.427Z,1.52
2023-02-26T17:43:45.008Z,1.45
2023-02-26T17:46:12.810Z,4.47
2023-02-26T17:48:40.381Z,12.00
2023-02-26T17:51:07.248Z,5.80
2023-02-26T17:53:33.921Z,4.50
2023-02-26T17:56:02.096Z,5.18
2023-02-26T17:58:34.997Z,3.00
2023-02-26T18:01:03.457Z,3.17
2023-02-26T18:03:30.346Z,2.75
2023-02-26T18:05:58.261Z,2.70
2023-02-26T18:08:28.733Z,2.17
2023-02-26T18:10:56.720Z,1.95
2023-02-26T18:13:23.615Z,2.17
2023-02-26T18:15:51.497Z,1.92
2023-02-26T18:18:19.977Z,1.40
2023-02-26T18:23:13.794Z,1.88
2023-02-26T18:25:41.316Z,1.87
2023-02-26T18:28:14.568Z,1.73
2023-02-26T18:30:44.056Z,1.90
2023-02-26T18:33:13.026Z,1.98
2023-02-26T18:35:46.923Z,1.85
2023-02-26T18:38:19.165Z,2.40
2023-02-26T18:40:46.798Z,2.05
2023-02-26T18:43:14.436Z,2.10
2023-02-26T18:45:46.282Z,5.93
2023-02-26T18:48:15.940Z,2.65
2023-02-26T18:50:45.446Z,1.83
2023-02-26T18:53:15.447Z,2.08
2023-02-26T18:55:42.105Z,1.58
2023-02-26T18:58:08.731Z,2.15
2023-02-26T19:00:35.302Z,2.35
2023-02-26T19:03:01.622Z,1.88
2023-02-26T19:05:28.320Z,2.10
2023-02-26T19:07:55.331Z,1.70
2023-02-26T19:10:24.581Z,1.52
2023-02-26T19:12:51.236Z,1.60
2023-02-26T19:15:18.564Z,1.50
2023-02-26T19:17:45.038Z,1.27
2023-02-26T19:20:12.744Z,1.98
2023-02-26T19:22:41.989Z,1.70
2023-02-26T19:25:10.533Z,1.70
2023-02-26T19:30:06.435Z,1.67
2023-02-26T19:32:33.063Z,1.85
2023-02-26T19:35:00.378Z,1.42
2023-02-26T19:37:28.104Z,1.38
2023-02-26T19:39:54.937Z,1.65
2023-02-26T19:42:22.135Z,1.50
2023-02-26T19:44:48.459Z,1.67
2023-02-26T19:47:14.909Z,1.70
2023-02-26T19:49:41.508Z,1.30
2023-02-26T19:52:08.612Z,1.60
2023-02-26T19:54:35.889Z,5.05
2023-02-26T19:57:03.271Z,4.32
2023-02-26T19:59:29.772Z,3.63
2023-02-26T20:01:57.661Z,3.10
2023-02-26T20:04:24.072Z,3.17
2023-02-26T20:06:51.114Z,2.80
2023-02-26T20:09:19.043Z,2.28
2023-02-26T20:11:45.844Z,2.17
2023-02-26T20:14:12.807Z,2.10
2023-02-26T20:16:39.167Z,2.47
2023-02-26T20:19:05.535Z,2.38
2023-02-26T20:21:32.411Z,1.73
2023-02-26T20:23:58.829Z,2.50
2023-02-26T20:26:25.532Z,2.30
2023-02-26T20:28:52.403Z,2.10
2023-02-26T20:31:19.205Z,2.00
2023-02-26T20:33:45.982Z,2.30
2023-02-26T20:36:12.309Z,2.03
2023-02-26T20:38:38.649Z,2.20
2023-02-26T20:41:05.756Z,2.20
2023-02-26T20:43:32.805Z,1.70
2023-02-26T20:45:59.661Z,1.85
2023-02-26T20:48:26.813Z,1.98
2023-02-26T20:50:58.746Z,2.42
2023-02-26T20:53:27.361Z,2.53
2023-02-26T20:55:56.685Z,2.10
2023-02-26T20:58:26.849Z,1.90
2023-02-26T21:00:57.663Z,2.20
2023-02-26T21:03:27.169Z,2.15
2023-02-26T21:05:54.324Z,2.20
2023-02-26T21:08:22.514Z,2.08
2023-02-26T21:10:52.256Z,2.17
2023-02-26T21:13:18.871Z,2.28
2023-02-26T21:15:45.530Z,1.92
2023-02-26T21:18:12.027Z,2.35
2023-02-26T21:20:39.472Z,2.72
2023-02-26T21:23:05.856Z,2.03
2023-02-26T21:25:32.254Z,2.67
2023-02-26T21:27:59.176Z,1.85
2023-02-26T21:30:25.625Z,2.28
2023-02-26T21:32:52.048Z,2.85
2023-02-26T21:35:18.552Z,2.03
2023-02-26T21:37:46.066Z,2.60
2023-02-26T21:40:15.003Z,1.67
2023-02-26T21:42:42.595Z,2.17
2023-02-26T21:45:10.765Z,2.72
2023-02-26T21:47:37.606Z,2.38
2023-02-26T21:50:05.752Z,2.30
2023-02-26T21:52:32.286Z,2.50
2023-02-26T21:55:00.897Z,2.70
2023-02-26T21:57:30.203Z,2.45
2023-02-26T21:59:56.672Z,2.47
2023-02-26T22:02:23.339Z,2.58
2023-02-26T22:04:49.777Z,2.35
2023-02-26T22:07:16.159Z,2.67
2023-02-26T22:09:46.175Z,2.60
2023-02-26T22:12:13.593Z,2.88
2023-02-26T22:14:39.888Z,2.63
2023-02-26T22:17:06.764Z,2.75
2023-02-26T22:19:33.432Z,3.08
2023-02-26T22:22:00.352Z,3.40
2023-02-26T22:24:26.773Z,3.15
2023-02-26T22:26:53.317Z,3.60
2023-02-26T22:29:19.782Z,3.63
2023-02-26T22:31:47.734Z,3.50
2023-02-26T22:34:14.450Z,3.40
2023-02-26T22:36:40.953Z,3.20
2023-02-26T22:39:07.647Z,3.42
2023-02-26T22:41:36.863Z,3.67
2023-02-26T22:44:04.026Z,3.50
2023-02-26T22:46:30.913Z,3.67
2023-02-26T22:48:57.364Z,3.97
2023-02-26T22:51:24.275Z,3.38
2023-02-26T22:53:51.150Z,3.25
2023-02-26T22:56:18.012Z,3.40
2023-02-26T22:58:44.402Z,3.78
2023-02-26T23:01:11.014Z,4.18
2023-02-26T23:03:37.619Z,4.13
2023-02-26T23:06:04.226Z,5.95
2023-02-26T23:08:30.777Z,3.45
2023-02-26T23:10:58.929Z,4.03
2023-02-26T23:13:25.911Z,4.32
2023-02-26T23:15:54.305Z,8.80
2023-02-26T23:20:48.956Z,4.60
2023-02-26T23:25:43.628Z,3.97
2023-02-26T23:28:10.323Z,3.47
2023-02-26T23:30:36.990Z,4.03
2023-02-26T23:33:05.065Z,4.47
2023-02-26T23:35:31.693Z,4.07
2023-02-26T23:37:58.073Z,4.47
2023-02-26T23:40:24.485Z,3.95
2023-02-26T23:42:51.630Z,4.00
2023-02-26T23:45:18.494Z,4.10
2023-02-26T23:47:45.103Z,3.70
2023-02-26T23:50:12.005Z,4.35
2023-02-26T23:52:38.624Z,4.05
2023-02-26T23:55:05.682Z,3.72
2023-02-26T23:57:33.182Z,3.80
2023-02-26T23:59:59.532Z,3.72
